Time;durP1;ratioP1;P1;durP2;ratioP2;P2;SDS_P1;SDS_P2;PMS_P1;PMS_P2;Temp;Humidity;BMP_temperature;BMP_pressure;BME280_temperature;BME280_humidity;BME280_pressure;Samples;Min_cycle;Max_cycle;Signal;HPM_P1;HPM_P2
2024/01/07 00:02:19;;;;;;;25.77;18.70;;;6.80;99.90;;;;;;5055175;28;20616;-70
2024/01/07 00:04:44;;;;;;;23.70;18.10;;;6.90;99.90;;;;;;5059029;28;20180;-69
2024/01/07 00:07:10;;;;;;;24.73;20.20;;;6.80;99.90;;;;;;5058510;28;21003;-70
2024/01/07 00:09:35;;;;;;;26.43;19.33;;;6.80;99.90;;;;;;5076732;28;20169;-70
2024/01/07 00:12:01;;;;;;;22.23;17.60;;;6.70;99.90;;;;;;5076085;28;20611;-70
2024/01/07 00:14:27;;;;;;;21.17;17.73;;;6.90;99.90;;;;;;5076375;28;20190;-70
2024/01/07 00:16:52;;;;;;;23.00;18.30;;;7.10;99.90;;;;;;5076281;28;20219;-70
2024/01/07 00:19:18;;;;;;;20.50;17.70;;;7.10;99.90;;;;;;5076114;28;20169;-70
2024/01/07 00:21:43;;;;;;;21.33;17.47;;;7.20;99.90;;;;;;5074113;28;20261;-70
2024/01/07 00:24:09;;;;;;;19.10;15.50;;;6.90;99.90;;;;;;5064092;28;20579;-69
2024/01/07 00:26:35;;;;;;;20.53;16.73;;;6.90;99.90;;;;;;5076306;28;20188;-69
2024/01/07 00:29:00;;;;;;;20.83;16.10;;;6.90;99.90;;;;;;5076274;28;20660;-69
2024/01/07 00:31:26;;;;;;;21.90;18.10;;;7.00;99.90;;;;;;5058139;28;20176;-69
2024/01/07 00:33:51;;;;;;;21.30;16.83;;;7.00;99.90;;;;;;5075411;28;20208;-70
2024/01/07 00:36:17;;;;;;;19.13;16.97;;;7.20;99.90;;;;;;5075943;28;20184;-69
2024/01/07 00:38:42;;;;;;;20.50;16.97;;;7.30;99.90;;;;;;5076004;28;20665;-70
2024/01/07 00:41:08;;;;;;;18.77;15.30;;;7.30;99.90;;;;;;5058321;28;20164;-70
2024/01/07 00:43:34;;;;;;;17.60;15.17;;;7.10;99.90;;;;;;5062488;28;20656;-70
2024/01/07 00:45:59;;;;;;;20.27;15.43;;;7.10;99.90;;;;;;5075749;28;20231;-70
2024/01/07 00:48:25;;;;;;;18.87;15.00;;;7.00;99.90;;;;;;5075053;28;20177;-70
2024/01/07 00:50:50;;;;;;;18.67;15.30;;;6.90;99.90;;;;;;5075120;28;20230;-70
2024/01/07 00:53:16;;;;;;;17.50;15.17;;;6.90;99.90;;;;;;5074737;28;20236;-72
2024/01/07 00:55:41;;;;;;;19.83;15.37;;;7.00;99.90;;;;;;5055461;28;20171;-70
2024/01/07 00:58:07;;;;;;;16.33;14.20;;;7.10;99.90;;;;;;5056149;28;20529;-70
2024/01/07 01:00:32;;;;;;;19.30;15.80;;;7.10;99.90;;;;;;5055924;28;20178;-70
2024/01/07 01:02:58;;;;;;;19.00;15.43;;;7.00;99.90;;;;;;5068112;28;20167;-69
2024/01/07 01:05:24;;;;;;;19.23;15.13;;;7.00;99.90;;;;;;5075562;28;20588;-70
2024/01/07 01:07:50;;;;;;;21.60;16.57;;;7.10;99.90;;;;;;5075561;28;20208;-70
2024/01/07 01:10:16;;;;;;;18.77;16.23;;;7.00;99.90;;;;;;5075624;28;20535;-70
2024/01/07 01:12:43;;;;;;;19.00;16.23;;;6.90;99.90;;;;;;5074609;28;20410;-70
2024/01/07 01:15:09;;;;;;;20.83;16.30;;;6.90;99.90;;;;;;5061487;28;20420;-70
2024/01/07 01:17:34;;;;;;;22.23;16.77;;;7.00;99.90;;;;;;5055255;28;20772;-70
2024/01/07 01:20:00;;;;;;;19.80;15.77;;;6.90;99.90;;;;;;5055474;28;20411;-70
2024/01/07 01:22:26;;;;;;;21.13;16.63;;;6.70;99.90;;;;;;5063289;28;20258;-70
2024/01/07 01:24:53;;;;;;;20.90;17.50;;;6.70;99.90;;;;;;5075110;28;20553;-70
2024/01/07 01:27:19;;;;;;;23.07;18.33;;;6.80;99.90;;;;;;5075100;28;20188;-70
2024/01/07 01:29:44;;;;;;;24.20;17.33;;;6.80;99.90;;;;;;5074864;28;20469;-70
2024/01/07 01:32:10;;;;;;;21.50;17.50;;;6.80;99.90;;;;;;5074448;28;20178;-70
2024/01/07 01:34:36;;;;;;;24.23;19.07;;;6.80;99.90;;;;;;5064978;28;20204;-70
2024/01/07 01:37:03;;;;;;;25.37;19.00;;;6.70;99.90;;;;;;5055002;28;20179;-70
2024/01/07 01:39:29;;;;;;;24.43;18.57;;;6.70;99.90;;;;;;5054995;28;20408;-70
2024/01/07 01:41:55;;;;;;;24.73;18.70;;;7.00;99.90;;;;;;5066946;28;20763;-70
2024/01/07 01:44:21;;;;;;;25.03;18.70;;;7.10;99.90;;;;;;5057406;28;20452;-70
2024/01/07 01:46:47;;;;;;;23.90;18.70;;;7.10;99.90;;;;;;5052875;28;20460;-70
2024/01/07 01:49:13;;;;;;;25.10;18.63;;;6.80;99.90;;;;;;5073752;28;20259;-69
2024/01/07 01:51:39;;;;;;;32.23;20.37;;;6.70;99.90;;;;;;5074148;28;20406;-70
2024/01/07 01:54:06;;;;;;;30.57;20.40;;;6.80;99.90;;;;;;5056959;28;20442;-70
2024/01/07 01:56:32;;;;;;;29.10;20.80;;;6.80;99.90;;;;;;5074413;28;20427;-70
2024/01/07 01:58:59;;;;;;;26.90;19.90;;;6.80;99.90;;;;;;5069649;28;20581;-68
2024/01/07 02:01:24;;;;;;;26.63;19.67;;;6.70;99.90;;;;;;5068643;28;20426;-69
2024/01/07 02:03:52;;;;;;;28.90;19.97;;;6.70;99.90;;;;;;5057928;28;20407;-70
2024/01/07 02:06:18;;;;;;;26.70;20.07;;;7.00;99.90;;;;;;5073938;28;20204;-70
2024/01/07 02:08:44;;;;;;;26.53;19.73;;;7.00;99.90;;;;;;5052467;28;20946;-69
2024/01/07 02:11:20;;;;;;;30.23;20.90;;;7.00;99.90;;;;;;5054182;28;20413;-70
2024/01/07 02:13:46;;;;;;;29.53;19.90;;;7.10;99.90;;;;;;5057372;28;20450;-70
2024/01/07 02:16:12;;;;;;;27.63;20.63;;;7.10;99.90;;;;;;5056054;28;20921;-69
2024/01/07 02:18:40;;;;;;;28.53;21.97;;;7.20;99.90;;;;;;5073086;28;20247;-70
2024/01/07 02:21:07;;;;;;;28.33;19.80;;;6.90;99.90;;;;;;5073821;28;20411;-69
2024/01/07 02:23:33;;;;;;;25.63;20.17;;;6.80;99.90;;;;;;5073781;28;20776;-69
2024/01/07 02:25:58;;;;;;;34.63;21.50;;;6.60;99.90;;;;;;5074077;28;20422;-69
2024/01/07 02:28:24;;;;;;;28.47;20.53;;;6.70;99.90;;;;;;5073661;28;20178;-69
2024/01/07 02:30:50;;;;;;;29.33;22.60;;;6.80;99.90;;;;;;5073903;28;20563;-70
2024/01/07 02:33:15;;;;;;;27.80;21.10;;;6.80;99.90;;;;;;5073554;28;20198;-70
2024/01/07 02:35:41;;;;;;;33.70;22.43;;;7.00;99.90;;;;;;5073304;28;20165;-69
2024/01/07 02:38:06;;;;;;;25.67;19.63;;;6.80;99.90;;;;;;5072824;28;20652;-69
2024/01/07 02:40:32;;;;;;;27.83;19.77;;;6.80;99.90;;;;;;5073437;28;20191;-69
2024/01/07 02:42:58;;;;;;;26.53;20.43;;;6.60;99.90;;;;;;5073209;28;20175;-68
2024/01/07 02:45:24;;;;;;;25.07;18.67;;;6.70;99.90;;;;;;5073402;28;20167;-69
2024/01/07 02:47:49;;;;;;;26.30;20.13;;;6.80;99.90;;;;;;5073714;28;20777;-70
2024/01/07 02:50:16;;;;;;;28.17;21.73;;;6.70;99.90;;;;;;5073690;28;20199;-69
2024/01/07 02:52:42;;;;;;;27.97;20.50;;;6.70;99.90;;;;;;5055713;28;20423;-70
2024/01/07 02:55:08;;;;;;;25.70;20.20;;;6.70;99.90;;;;;;5073331;28;20443;-70
2024/01/07 02:57:33;;;;;;;30.87;23.57;;;6.60;99.90;;;;;;5071213;28;20448;-68
2024/01/07 02:59:59;;;;;;;28.97;22.23;;;6.70;99.90;;;;;;5056506;28;20831;-70
2024/01/07 03:02:25;;;;;;;27.03;20.33;;;6.90;99.90;;;;;;5035343;28;20167;-70
2024/01/07 03:04:50;;;;;;;23.83;18.17;;;6.90;99.90;;;;;;5046357;28;20226;-70
2024/01/07 03:07:16;;;;;;;27.80;20.93;;;7.00;99.90;;;;;;5073430;28;20214;-70
2024/01/07 03:09:41;;;;;;;23.90;18.67;;;6.90;99.90;;;;;;5072511;28;20180;-70
2024/01/07 03:12:07;;;;;;;26.17;19.83;;;7.10;99.90;;;;;;5072750;28;20182;-70
2024/01/07 03:14:33;;;;;;;26.50;20.27;;;7.10;99.90;;;;;;5073106;28;20192;-70
2024/01/07 03:16:58;;;;;;;28.43;21.70;;;7.00;99.90;;;;;;5073055;28;20181;-69
2024/01/07 03:19:24;;;;;;;25.70;19.30;;;7.00;99.90;;;;;;5072311;28;20181;-70
2024/01/07 03:21:50;;;;;;;25.77;18.97;;;7.10;99.90;;;;;;5073107;28;20162;-70
2024/01/07 03:24:16;;;;;;;22.47;18.57;;;7.00;99.90;;;;;;5073182;28;20645;-69
2024/01/07 03:26:41;;;;;;;25.03;19.67;;;7.00;99.90;;;;;;5073252;28;20537;-69
2024/01/07 03:29:07;;;;;;;25.43;20.07;;;7.10;99.90;;;;;;5072531;28;20216;-70
2024/01/07 03:31:33;;;;;;;22.43;19.20;;;7.00;99.90;;;;;;5073763;28;20176;-70
2024/01/07 03:33:59;;;;;;;23.17;18.20;;;7.10;99.90;;;;;;5073543;28;20195;-70
2024/01/07 03:36:24;;;;;;;27.30;20.70;;;7.10;99.90;;;;;;5073128;28;20679;-70
2024/01/07 03:38:50;;;;;;;29.23;21.50;;;7.00;99.90;;;;;;5072499;28;20257;-69
2024/01/07 03:41:19;;;;;;;24.53;19.20;;;7.00;99.90;;;;;;5073628;28;20250;-70
2024/01/07 03:43:46;;;;;;;21.40;18.33;;;7.00;99.90;;;;;;5073090;28;20169;-69
2024/01/07 03:46:12;;;;;;;21.73;18.03;;;7.00;99.90;;;;;;5055236;28;20478;-70
2024/01/07 03:48:38;;;;;;;21.47;17.27;;;7.20;99.90;;;;;;5066234;28;20454;-70
2024/01/07 03:51:04;;;;;;;20.43;17.37;;;7.10;99.90;;;;;;5053176;28;20915;-70
2024/01/07 03:53:30;;;;;;;21.47;16.10;;;7.10;99.90;;;;;;5053121;28;20190;-69
2024/01/07 03:55:55;;;;;;;22.30;18.43;;;7.00;99.90;;;;;;5072297;28;20442;-69
2024/01/07 03:58:21;;;;;;;23.00;19.20;;;6.80;99.90;;;;;;5072246;28;20610;-68
2024/01/07 04:00:46;;;;;;;20.37;17.60;;;6.80;99.90;;;;;;5072818;28;20204;-69
2024/01/07 04:03:12;;;;;;;21.30;18.93;;;6.90;99.90;;;;;;5073347;28;20168;-69
2024/01/07 04:05:37;;;;;;;20.73;16.90;;;6.90;99.90;;;;;;5072699;28;20184;-68
2024/01/07 04:08:03;;;;;;;20.70;17.00;;;6.90;99.90;;;;;;5072787;28;20600;-70
2024/01/07 04:10:29;;;;;;;22.17;18.03;;;6.80;99.90;;;;;;5073149;28;20171;-69
2024/01/07 04:12:55;;;;;;;21.17;18.03;;;6.70;99.90;;;;;;5072351;28;20430;-70
2024/01/07 04:15:21;;;;;;;18.90;16.23;;;6.70;99.90;;;;;;5072389;28;20172;-70
2024/01/07 04:17:46;;;;;;;19.80;16.27;;;6.70;99.90;;;;;;5072321;28;20434;-69
2024/01/07 04:20:15;;;;;;;20.93;16.67;;;6.70;99.90;;;;;;5072031;28;20182;-70
2024/01/07 04:22:41;;;;;;;22.70;17.73;;;6.70;99.90;;;;;;5073048;28;20179;-69
2024/01/07 04:25:10;;;;;;;19.33;17.20;;;6.60;99.90;;;;;;5076410;28;20413;-70
2024/01/07 04:27:37;;;;;;;22.27;16.50;;;6.50;99.90;;;;;;5075621;28;20197;-70
2024/01/07 04:30:03;;;;;;;23.90;18.47;;;6.40;99.90;;;;;;5058244;28;20514;-69
2024/01/07 04:32:29;;;;;;;21.27;16.80;;;6.40;99.90;;;;;;5076186;28;20438;-70
2024/01/07 04:34:54;;;;;;;24.30;17.00;;;6.40;99.90;;;;;;5076119;28;20503;-69
2024/01/07 04:37:20;;;;;;;22.53;17.40;;;6.40;99.90;;;;;;5075755;28;20279;-69
2024/01/07 04:39:45;;;;;;;20.93;16.63;;;6.50;99.90;;;;;;5074937;28;20653;-69
2024/01/07 04:42:11;;;;;;;20.03;16.97;;;6.60;99.90;;;;;;5075819;28;20171;-70
2024/01/07 04:44:37;;;;;;;24.73;18.50;;;6.40;99.90;;;;;;5075857;28;20616;-71
2024/01/07 04:47:02;;;;;;;22.87;18.40;;;6.30;99.90;;;;;;5075678;28;20692;-71
2024/01/07 04:49:28;;;;;;;23.43;16.87;;;6.50;99.90;;;;;;5075136;28;20661;-70
2024/01/07 04:51:54;;;;;;;23.00;17.67;;;6.30;99.90;;;;;;5075026;28;20266;-70
2024/01/07 04:54:19;;;;;;;22.10;17.67;;;6.30;99.90;;;;;;5075620;28;20192;-69
2024/01/07 04:56:45;;;;;;;22.40;17.70;;;6.20;99.90;;;;;;5075591;28;20191;-69
2024/01/07 04:59:11;;;;;;;23.50;17.90;;;6.20;99.90;;;;;;5075000;28;20176;-69
2024/01/07 05:01:36;;;;;;;22.40;16.80;;;6.20;99.90;;;;;;5075460;28;20180;-69
2024/01/07 05:04:02;;;;;;;23.73;17.80;;;6.40;99.90;;;;;;5075551;28;20255;-70
2024/01/07 05:06:28;;;;;;;18.40;15.40;;;6.40;99.90;;;;;;5075018;28;20216;-68
2024/01/07 05:08:54;;;;;;;23.57;17.10;;;6.60;99.90;;;;;;5075130;28;20425;-71
2024/01/07 05:11:19;;;;;;;19.47;16.10;;;6.50;99.90;;;;;;5057349;28;20176;-69
2024/01/07 05:13:45;;;;;;;17.90;14.43;;;6.50;99.90;;;;;;5075239;28;20217;-71
2024/01/07 05:16:20;;;;;;;19.73;15.50;;;6.30;99.90;;;;;;5075101;28;20218;-70
2024/01/07 05:18:48;;;;;;;21.23;15.50;;;6.20;99.90;;;;;;5070634;28;20174;-70
2024/01/07 05:21:23;;;;;;;20.37;15.90;;;6.30;99.90;;;;;;5037297;28;20463;-71
2024/01/07 05:23:48;;;;;;;21.80;16.73;;;6.50;99.90;;;;;;5055500;28;20391;-70
2024/01/07 05:26:15;;;;;;;19.30;15.10;;;6.50;99.90;;;;;;5075119;28;20438;-71
2024/01/07 05:28:41;;;;;;;16.60;13.40;;;6.60;99.90;;;;;;5070994;28;20180;-70
2024/01/07 05:31:17;;;;;;;19.27;14.60;;;6.70;99.90;;;;;;5054976;28;20408;-70
2024/01/07 05:33:46;;;;;;;18.63;14.60;;;6.80;99.90;;;;;;5055109;28;20738;-71
2024/01/07 05:36:12;;;;;;;17.23;13.67;;;6.50;99.90;;;;;;5054828;28;20431;-71
2024/01/07 05:38:38;;;;;;;17.20;13.03;;;6.70;99.90;;;;;;5070919;28;20780;-71
2024/01/07 05:41:04;;;;;;;17.83;13.90;;;6.60;99.90;;;;;;5074680;28;20242;-71
2024/01/07 05:43:29;;;;;;;17.40;14.00;;;6.60;99.90;;;;;;5074588;28;20906;-71
2024/01/07 05:45:55;;;;;;;16.57;13.70;;;6.70;99.90;;;;;;5074952;28;20521;-70
2024/01/07 05:48:22;;;;;;;19.33;14.87;;;6.70;99.90;;;;;;5073932;28;20260;-71
2024/01/07 05:50:48;;;;;;;18.70;14.57;;;6.70;99.90;;;;;;5056439;28;20260;-71
2024/01/07 05:53:14;;;;;;;17.87;13.60;;;6.40;99.90;;;;;;5054940;28;20443;-70
2024/01/07 05:55:40;;;;;;;20.23;14.60;;;6.10;99.90;;;;;;5069862;28;20464;-71
2024/01/07 05:58:05;;;;;;;17.13;13.00;;;6.10;99.90;;;;;;5056156;28;20198;-71
2024/01/07 06:00:31;;;;;;;16.83;13.70;;;6.10;99.90;;;;;;5070291;28;20172;-71
2024/01/07 06:02:57;;;;;;;15.50;13.30;;;6.10;99.90;;;;;;5061187;28;20250;-71
2024/01/07 06:05:23;;;;;;;15.47;13.07;;;6.10;99.90;;;;;;5056171;28;20175;-70
2024/01/07 06:07:48;;;;;;;16.20;13.50;;;6.10;99.90;;;;;;5073301;28;20214;-71
2024/01/07 06:10:14;;;;;;;18.70;13.90;;;6.00;99.90;;;;;;5074011;28;20589;-70
2024/01/07 06:12:40;;;;;;;19.20;14.00;;;6.00;99.90;;;;;;5069562;28;20175;-71
2024/01/07 06:15:06;;;;;;;16.47;13.77;;;6.10;99.90;;;;;;5064169;28;21018;-70
2024/01/07 06:17:32;;;;;;;15.10;13.00;;;6.10;99.90;;;;;;5064186;28;20275;-69
2024/01/07 06:19:57;;;;;;;16.67;13.50;;;6.10;99.90;;;;;;5064327;28;20175;-70
2024/01/07 06:22:23;;;;;;;14.93;12.30;;;6.20;99.90;;;;;;5064319;28;20196;-71
2024/01/07 06:24:48;;;;;;;14.70;12.20;;;6.40;99.90;;;;;;5064459;28;20707;-71
2024/01/07 06:27:14;;;;;;;17.27;14.50;;;6.50;99.90;;;;;;5064089;28;20200;-70
2024/01/07 06:29:40;;;;;;;17.60;14.00;;;6.40;99.90;;;;;;5064515;28;20565;-71
2024/01/07 06:32:05;;;;;;;16.83;14.17;;;6.60;99.90;;;;;;5063384;28;20191;-70
2024/01/07 06:34:32;;;;;;;15.60;12.87;;;6.50;99.90;;;;;;5063312;28;20230;-70
2024/01/07 06:37:00;;;;;;;17.43;14.10;;;6.40;99.90;;;;;;5062721;28;20677;-70
2024/01/07 06:39:29;;;;;;;16.90;13.80;;;6.60;99.90;;;;;;5062901;28;20425;-69
2024/01/07 06:41:54;;;;;;;15.07;13.17;;;6.50;99.90;;;;;;5064142;28;20415;-71
2024/01/07 06:44:20;;;;;;;18.10;14.40;;;6.50;99.90;;;;;;5063771;28;20425;-70
2024/01/07 06:46:46;;;;;;;14.50;12.93;;;6.40;99.90;;;;;;5063293;28;20262;-71
2024/01/07 06:49:11;;;;;;;15.40;13.27;;;6.40;99.90;;;;;;5062829;28;20195;-70
2024/01/07 06:51:38;;;;;;;14.30;12.33;;;6.40;99.90;;;;;;5064402;28;20513;-69
2024/01/07 06:54:04;;;;;;;16.30;13.80;;;6.50;99.90;;;;;;5063591;28;20229;-69
2024/01/07 06:56:29;;;;;;;16.63;13.17;;;6.60;99.90;;;;;;5063807;28;20934;-70
2024/01/07 06:58:55;;;;;;;16.60;13.07;;;6.60;99.90;;;;;;5063530;28;20188;-70
2024/01/07 07:01:22;;;;;;;14.47;12.90;;;6.50;99.90;;;;;;5064245;28;20513;-71
2024/01/07 07:03:49;;;;;;;14.43;12.30;;;6.30;99.90;;;;;;5063777;28;20200;-70
2024/01/07 07:06:15;;;;;;;15.20;13.00;;;6.10;99.90;;;;;;5046565;28;20862;-76
2024/01/07 07:08:41;;;;;;;14.90;13.30;;;6.10;99.90;;;;;;5053753;28;20419;-70
2024/01/07 07:11:06;;;;;;;14.10;12.60;;;6.20;99.90;;;;;;5053205;28;20477;-70
2024/01/07 07:13:32;;;;;;;15.30;13.70;;;6.00;99.90;;;;;;5060255;28;20681;-70
2024/01/07 07:15:58;;;;;;;15.50;13.07;;;6.10;99.90;;;;;;5072340;28;20197;-70
2024/01/07 07:18:24;;;;;;;13.03;11.73;;;6.20;99.90;;;;;;5073234;28;20190;-70
2024/01/07 07:20:49;;;;;;;14.03;12.63;;;6.20;99.90;;;;;;5073197;28;20397;-70
2024/01/07 07:23:15;;;;;;;13.33;11.60;;;6.10;99.90;;;;;;5072980;28;20182;-70
2024/01/07 07:25:41;;;;;;;13.50;11.90;;;6.10;99.90;;;;;;5072479;28;20593;-70
2024/01/07 07:28:06;;;;;;;12.77;11.47;;;6.10;99.90;;;;;;5073010;28;20174;-70
2024/01/07 07:30:32;;;;;;;13.73;11.57;;;6.10;99.90;;;;;;5071052;28;20178;-71
2024/01/07 07:32:57;;;;;;;11.67;10.57;;;6.00;99.90;;;;;;5072747;28;20193;-69
2024/01/07 07:35:23;;;;;;;11.40;10.37;;;6.00;99.90;;;;;;5072759;28;20176;-69
2024/01/07 07:37:49;;;;;;;12.37;11.07;;;6.10;99.90;;;;;;5056122;28;20729;-70
2024/01/07 07:40:15;;;;;;;9.97;8.97;;;5.90;99.90;;;;;;5053138;28;20173;-71
2024/01/07 07:42:40;;;;;;;11.63;10.23;;;5.80;99.90;;;;;;5052925;28;20196;-71
2024/01/07 07:45:06;;;;;;;13.00;11.60;;;5.70;99.90;;;;;;5072252;28;20417;-71
2024/01/07 07:47:32;;;;;;;11.57;9.83;;;5.80;99.90;;;;;;5073536;28;20187;-68
2024/01/07 07:49:58;;;;;;;12.67;10.67;;;5.80;99.90;;;;;;5061273;28;20418;-71
2024/01/07 07:52:25;;;;;;;12.27;9.97;;;5.80;99.90;;;;;;5069540;28;20546;-72
2024/01/07 07:54:52;;;;;;;11.50;10.35;;;5.80;99.90;;;;;;5072170;28;20434;-69
2024/01/07 07:57:20;;;;;;;11.13;10.03;;;5.90;99.90;;;;;;5072992;28;20610;-68
2024/01/07 07:59:46;;;;;;;10.40;9.17;;;6.10;99.90;;;;;;5077067;28;20904;-68
2024/01/07 08:02:12;;;;;;;11.80;9.93;;;6.10;99.90;;;;;;5057697;28;20465;-69
2024/01/07 08:04:41;;;;;;;10.63;8.70;;;6.00;99.90;;;;;;5067214;28;20188;-68
2024/01/07 08:07:08;;;;;;;9.33;8.37;;;5.90;99.90;;;;;;5066222;28;20434;-68
2024/01/07 08:09:36;;;;;;;9.97;8.97;;;5.90;99.90;;;;;;5067175;28;20413;-69
2024/01/07 08:12:02;;;;;;;11.00;9.60;;;5.80;99.90;;;;;;5064825;28;20426;-68
2024/01/07 08:14:28;;;;;;;9.77;8.60;;;5.70;99.90;;;;;;5076475;28;20453;-68
2024/01/07 08:16:54;;;;;;;12.90;9.37;;;5.70;99.90;;;;;;5076594;28;20764;-67
2024/01/07 08:19:20;;;;;;;9.40;8.50;;;5.80;99.90;;;;;;5076400;28;20408;-69
2024/01/07 08:21:46;;;;;;;10.27;9.13;;;5.70;99.90;;;;;;5066020;28;20637;-68
2024/01/07 08:24:11;;;;;;;9.30;8.27;;;5.60;99.90;;;;;;5076374;28;20176;-68
2024/01/07 08:26:37;;;;;;;9.60;8.20;;;5.60;99.90;;;;;;5076375;28;20206;-68
2024/01/07 08:29:03;;;;;;;9.73;8.50;;;5.80;99.90;;;;;;5076408;28;20240;-68
2024/01/07 08:31:30;;;;;;;9.03;7.60;;;5.60;99.90;;;;;;5075066;28;20410;-69
2024/01/07 08:33:56;;;;;;;11.93;9.30;;;5.50;99.90;;;;;;5076085;28;20205;-68
2024/01/07 08:36:21;;;;;;;10.07;7.47;;;5.50;99.90;;;;;;5076047;28;20445;-69
2024/01/07 08:38:47;;;;;;;9.13;8.17;;;5.60;99.90;;;;;;5076023;28;20202;-70
2024/01/07 08:41:16;;;;;;;8.97;7.77;;;5.60;99.90;;;;;;5075042;28;20654;-68
2024/01/07 08:43:41;;;;;;;8.80;8.00;;;5.50;99.90;;;;;;5076026;28;20214;-70
2024/01/07 08:46:07;;;;;;;9.80;8.30;;;5.50;99.90;;;;;;5075924;28;20807;-68
2024/01/07 08:48:33;;;;;;;13.10;8.03;;;5.60;99.90;;;;;;5075845;28;20174;-69
2024/01/07 08:50:58;;;;;;;11.10;8.67;;;5.50;99.90;;;;;;5058012;28;20179;-66
2024/01/07 08:53:24;;;;;;;9.10;8.20;;;5.50;99.90;;;;;;5075760;28;20212;-69
2024/01/07 08:55:49;;;;;;;10.50;9.20;;;5.50;99.90;;;;;;5075232;28;20591;-67
2024/01/07 08:58:15;;;;;;;12.60;9.60;;;5.70;99.90;;;;;;5075228;28;20182;-68
2024/01/07 09:00:42;;;;;;;10.70;9.60;;;5.60;99.90;;;;;;5063835;28;20187;-68
2024/01/07 09:03:07;;;;;;;9.23;8.33;;;5.40;99.90;;;;;;5047454;28;20400;-68
2024/01/07 09:05:33;;;;;;;11.10;9.60;;;5.30;99.90;;;;;;5064855;28;20415;-69
2024/01/07 09:08:00;;;;;;;12.63;9.53;;;5.30;99.90;;;;;;5065975;28;20185;-69
2024/01/07 09:10:26;;;;;;;12.70;9.53;;;5.30;99.90;;;;;;5060072;28;20266;-69
2024/01/07 09:12:53;;;;;;;10.50;9.13;;;5.50;99.90;;;;;;5063253;28;20429;-67
2024/01/07 09:15:20;;;;;;;13.53;12.13;;;5.30;99.90;;;;;;5062274;28;20453;-69
2024/01/07 09:17:46;;;;;;;13.70;12.23;;;5.20;99.90;;;;;;5054996;28;20934;-69
2024/01/07 09:20:12;;;;;;;12.73;9.80;;;5.30;99.90;;;;;;5055079;28;20744;-69
2024/01/07 09:22:38;;;;;;;9.53;8.37;;;5.40;99.90;;;;;;5055849;28;20827;-70
2024/01/07 09:25:05;;;;;;;7.93;6.90;;;5.40;99.90;;;;;;5072676;28;20408;-69
2024/01/07 09:27:31;;;;;;;7.70;6.57;;;5.30;99.90;;;;;;5074873;28;20455;-69
2024/01/07 09:29:57;;;;;;;7.97;7.20;;;5.20;99.90;;;;;;5073562;28;20471;-70
2024/01/07 09:32:23;;;;;;;7.17;6.00;;;5.10;99.90;;;;;;5053202;28;20458;-69
2024/01/07 09:34:49;;;;;;;7.43;6.13;;;5.10;99.90;;;;;;5070005;28;20202;-69
2024/01/07 09:37:16;;;;;;;6.17;5.40;;;5.00;99.90;;;;;;5074697;28;20420;-69
2024/01/07 09:39:41;;;;;;;8.17;5.80;;;5.00;99.90;;;;;;5075509;28;20306;-69
2024/01/07 09:42:16;;;;;;;6.97;5.87;;;5.00;99.90;;;;;;5056883;28;20458;-69
2024/01/07 09:44:43;;;;;;;5.90;5.30;;;5.10;99.90;;;;;;5074461;28;20166;-69
2024/01/07 09:47:13;;;;;;;7.10;6.40;;;5.20;99.90;;;;;;5074471;28;20938;-68
2024/01/07 09:49:40;;;;;;;8.57;6.47;;;5.30;99.90;;;;;;5075105;28;20390;-69
2024/01/07 09:52:09;;;;;;;7.47;6.60;;;5.40;99.90;;;;;;5073698;28;20421;-69
2024/01/07 09:54:38;;;;;;;11.10;10.00;;;5.50;99.90;;;;;;5074073;28;20951;-69
2024/01/07 09:57:06;;;;;;;6.80;6.10;;;5.30;99.90;;;;;;5074282;28;20428;-69
2024/01/07 09:59:32;;;;;;;8.43;5.73;;;5.30;99.90;;;;;;5074021;28;20771;-69
2024/01/07 10:01:58;;;;;;;6.97;6.27;;;5.30;99.90;;;;;;5073093;28;20488;-69
2024/01/07 10:04:25;;;;;;;6.90;6.10;;;5.40;99.90;;;;;;5074311;28;20845;-68
2024/01/07 10:06:52;;;;;;;8.63;6.63;;;5.40;99.90;;;;;;5074077;28;20212;-69
2024/01/07 10:09:18;;;;;;;10.27;7.37;;;5.20;99.90;;;;;;5056316;28;20439;-69
2024/01/07 10:11:44;;;;;;;7.33;6.57;;;5.10;99.90;;;;;;5073555;28;20420;-71
2024/01/07 10:14:10;;;;;;;6.80;5.87;;;5.20;99.90;;;;;;5066104;28;20445;-71
2024/01/07 10:16:36;;;;;;;8.20;6.97;;;5.10;99.90;;;;;;5054147;28;20187;-70
2024/01/07 10:19:02;;;;;;;6.93;5.63;;;5.20;99.90;;;;;;5054094;28;20159;-69
2024/01/07 10:21:28;;;;;;;7.53;6.80;;;5.10;99.90;;;;;;5055216;28;20947;-70
2024/01/07 10:24:10;;;;;;;9.17;7.00;;;5.10;99.90;;;;;;5074039;28;20409;-69
2024/01/07 10:26:38;;;;;;;6.83;6.07;;;5.10;99.90;;;;;;5074464;28;20216;-70
2024/01/07 10:29:04;;;;;;;7.33;6.30;;;4.90;99.90;;;;;;5074164;28;20396;-70
2024/01/07 10:31:31;;;;;;;6.90;5.83;;;4.80;99.90;;;;;;5073430;28;20956;-70
2024/01/07 10:33:57;;;;;;;7.30;6.27;;;4.70;99.90;;;;;;5074076;28;20456;-70
2024/01/07 10:36:24;;;;;;;8.67;6.13;;;4.70;99.90;;;;;;5073989;28;20973;-70
2024/01/07 10:38:50;;;;;;;7.73;6.60;;;4.80;99.90;;;;;;5073939;28;20396;-70
2024/01/07 10:41:19;;;;;;;8.10;7.17;;;4.90;99.90;;;;;;5073235;28;20413;-70
2024/01/07 10:43:47;;;;;;;8.20;7.10;;;5.00;99.90;;;;;;5073844;28;20768;-69
2024/01/07 10:46:14;;;;;;;8.43;7.03;;;4.90;99.90;;;;;;5073315;28;20432;-70
2024/01/07 10:48:53;;;;;;;8.17;6.97;;;4.80;99.90;;;;;;5073446;28;20413;-69
2024/01/07 10:51:20;;;;;;;9.60;8.60;;;4.70;99.90;;;;;;5062418;28;20919;-71
2024/01/07 10:53:53;;;;;;;8.13;7.33;;;4.60;99.90;;;;;;5059195;28;20538;-70
2024/01/07 10:56:23;;;;;;;7.60;6.80;;;4.60;99.90;;;;;;5072862;28;20423;-72
2024/01/07 10:58:54;;;;;;;7.23;6.53;;;4.70;99.90;;;;;;5073674;28;20405;-70
2024/01/07 11:01:21;;;;;;;9.27;7.70;;;4.70;99.90;;;;;;5073419;28;20888;-69
2024/01/07 11:04:08;;;;;;;8.10;7.30;;;4.60;99.90;;;;;;5073684;28;20980;-72
2024/01/07 11:06:42;;;;;;;8.50;7.33;;;4.60;99.90;;;;;;5072871;28;20543;-71
2024/01/07 11:09:29;;;;;;;8.00;7.10;;;4.60;99.90;;;;;;5073681;28;20784;-70
2024/01/07 11:11:56;;;;;;;9.73;7.37;;;4.50;99.90;;;;;;5074266;28;20781;-70
2024/01/07 11:14:52;;;;;;;9.10;7.70;;;4.50;99.90;;;;;;5073890;28;20822;-71
2024/01/07 11:17:37;;;;;;;8.83;7.90;;;4.50;99.90;;;;;;5058581;28;20582;-71
2024/01/07 11:20:14;;;;;;;9.40;8.07;;;4.60;99.90;;;;;;5052095;28;20426;-71
2024/01/07 11:22:39;;;;;;;9.30;7.40;;;4.60;99.90;;;;;;5053385;28;20464;-71
2024/01/07 11:25:30;;;;;;;9.73;7.30;;;4.60;99.90;;;;;;5069487;28;20459;-70
2024/01/07 11:27:57;;;;;;;10.17;7.27;;;4.60;99.90;;;;;;5064188;28;20163;-71
2024/01/07 11:30:23;;;;;;;10.00;7.93;;;4.70;99.90;;;;;;5064813;28;20402;-72
2024/01/07 11:32:55;;;;;;;7.67;6.53;;;4.70;99.90;;;;;;5065892;28;20752;-71
2024/01/07 11:35:59;;;;;;;8.77;7.50;;;4.50;99.90;;;;;;5068414;28;20173;-71
2024/01/07 11:38:25;;;;;;;8.40;7.20;;;4.60;99.90;;;;;;5076462;28;20408;-71
2024/01/07 11:40:52;;;;;;;7.57;6.77;;;4.60;99.90;;;;;;5076284;28;20392;-70
2024/01/07 11:43:18;;;;;;;7.47;6.70;;;4.60;99.90;;;;;;5049820;28;20483;-70
2024/01/07 11:45:44;;;;;;;7.40;6.60;;;4.70;99.90;;;;;;5077171;28;20465;-71
2024/01/07 11:48:10;;;;;;;8.30;7.50;;;4.70;99.90;;;;;;5076257;28;20456;-71
2024/01/07 11:50:36;;;;;;;9.23;7.60;;;4.70;99.90;;;;;;5067810;28;20403;-70
2024/01/07 11:53:02;;;;;;;7.60;6.90;;;4.80;99.90;;;;;;5065553;28;20170;-69
2024/01/07 11:55:32;;;;;;;7.70;7.00;;;4.90;99.90;;;;;;5068012;28;20194;-70
2024/01/07 11:58:00;;;;;;;8.10;7.10;;;4.80;99.90;;;;;;5066551;28;20437;-70
2024/01/07 12:00:26;;;;;;;7.50;6.57;;;4.80;99.90;;;;;;5071421;28;20427;-70
2024/01/07 12:02:51;;;;;;;7.97;7.27;;;4.70;99.90;;;;;;5076956;28;20433;-71
2024/01/07 12:05:17;;;;;;;7.93;7.13;;;4.80;99.90;;;;;;5076478;28;20649;-69
2024/01/07 12:07:43;;;;;;;8.47;7.40;;;4.60;99.90;;;;;;5075882;28;20209;-70
2024/01/07 12:10:12;;;;;;;8.93;7.17;;;4.60;99.90;;;;;;5076393;28;20177;-70
2024/01/07 12:12:42;;;;;;;8.33;7.50;;;4.50;99.90;;;;;;5076473;28;20630;-68
2024/01/07 12:15:08;;;;;;;11.53;8.87;;;4.60;99.90;;;;;;5076142;28;20817;-70
2024/01/07 12:17:34;;;;;;;8.77;7.87;;;4.50;99.90;;;;;;5075793;28;20416;-70
2024/01/07 12:20:04;;;;;;;9.53;8.27;;;4.40;99.90;;;;;;5075497;28;20402;-70
2024/01/07 12:22:30;;;;;;;8.90;8.00;;;4.40;99.90;;;;;;5076777;28;20270;-69
2024/01/07 12:25:11;;;;;;;9.70;8.43;;;4.50;99.90;;;;;;5076240;28;20435;-68
2024/01/07 12:27:37;;;;;;;11.73;8.03;;;4.50;99.90;;;;;;5075867;28;20687;-70
2024/01/07 12:30:05;;;;;;;9.27;8.23;;;4.40;99.90;;;;;;5075229;28;20405;-68
2024/01/07 12:32:30;;;;;;;9.60;8.03;;;4.40;99.90;;;;;;5076093;28;20461;-69
2024/01/07 12:34:59;;;;;;;9.83;8.63;;;4.30;99.90;;;;;;5076112;28;20443;-71
2024/01/07 12:37:28;;;;;;;10.70;9.00;;;4.20;99.90;;;;;;5075738;28;20242;-70
2024/01/07 12:39:54;;;;;;;10.57;9.17;;;4.10;99.90;;;;;;5075278;28;20435;-70
2024/01/07 12:42:21;;;;;;;9.17;8.10;;;4.10;99.90;;;;;;5074786;28;20440;-69